Time;durP1;ratioP1;P1;durP2;ratioP2;P2;SDS_P1;SDS_P2;PMS_P1;PMS_P2;Temp;Humidity;BMP_temperature;BMP_pressure;BME280_temperature;BME280_humidity;BME280_pressure;Samples;Min_cycle;Max_cycle;Signal;HPM_P1;HPM_P2
2022/02/15 00:00:34;;;;;;;5.37;4.87;;;;;;;18.93;44.03;96767.50;4876055;29;20297;-85
2022/02/15 00:03:01;;;;;;;5.17;4.63;;;;;;;19.01;44.37;96783.84;4876630;29;20292;-84
2022/02/15 00:05:27;;;;;;;5.47;4.50;;;;;;;19.00;44.23;96780.44;4891639;29;20293;-84
2022/02/15 00:08:01;;;;;;;5.23;4.73;;;;;;;18.86;44.04;96753.72;4876362;29;20246;-84
2022/02/15 00:10:28;;;;;;;5.03;4.30;;;;;;;18.71;44.42;96732.09;4873808;29;20298;-84
2022/02/15 00:12:54;;;;;;;4.90;4.40;;;;;;;18.81;44.37;96741.69;4907503;29;20657;-84
2022/02/15 00:15:21;;;;;;;5.63;4.63;;;;;;;19.02;44.19;96781.34;4891460;29;20770;-85
2022/02/15 00:17:47;;;;;;;5.53;4.93;;;;;;;18.86;44.15;96747.78;4875772;29;20210;-85
2022/02/15 00:20:14;;;;;;;5.20;4.70;;;;;;;18.71;44.44;96724.47;4893373;29;20623;-84
2022/02/15 00:22:41;;;;;;;4.93;4.40;;;;;;;19.06;44.27;96782.25;4891478;29;20261;-84
2022/02/15 00:25:08;;;;;;;5.03;4.53;;;;;;;19.06;44.29;96782.25;4876468;29;20250;-85
2022/02/15 00:27:34;;;;;;;5.47;4.97;;;;;;;18.96;44.03;96772.66;4893124;29;20210;-84
2022/02/15 00:30:01;;;;;;;7.10;5.33;;;;;;;19.14;44.41;96803.72;4890935;29;20305;-84
2022/02/15 00:32:27;;;;;;;5.30;4.80;;;;;;;18.65;44.39;96725.13;4892777;29;20265;-84
2022/02/15 00:34:54;;;;;;;5.07;4.57;;;;;;;18.89;44.18;96753.81;4890587;29;20353;-84
2022/02/15 00:37:21;;;;;;;4.87;4.43;;;;;;;18.50;44.29;96686.53;4891920;29;20262;-85
2022/02/15 00:39:47;;;;;;;6.50;5.10;;;;;;;18.69;44.27;96718.44;4892860;29;20278;-85
2022/02/15 00:42:14;;;;;;;5.87;5.10;;;;;;;18.81;44.27;96741.69;4891451;29;20233;-84
2022/02/15 00:44:41;;;;;;;5.30;4.80;;;;;;;18.70;44.32;96722.72;4875589;29;20628;-84
2022/02/15 00:47:08;;;;;;;5.07;4.47;;;;;;;18.83;44.17;96760.44;4891326;29;20234;-84
2022/02/15 00:49:34;;;;;;;5.10;4.60;;;;;;;19.11;44.53;96801.09;4876116;29;20258;-84
2022/02/15 00:52:01;;;;;;;4.87;4.30;;;;;;;18.46;44.32;96694.91;4875684;29;20289;-84
2022/02/15 00:54:28;;;;;;;5.43;4.93;;;;;;;19.10;44.33;96797.66;4891255;29;20704;-84
2022/02/15 00:56:54;;;;;;;5.30;4.80;;;;;;;19.09;44.34;96801.03;4891352;29;20298;-84
2022/02/15 00:59:21;;;;;;;5.83;4.97;;;;;;;18.89;44.26;96766.53;4892694;29;20332;-84
2022/02/15 01:01:48;;;;;;;5.60;4.67;;;;;;;18.31;44.23;96663.94;4890916;29;20776;-84
2022/02/15 01:04:14;;;;;;;5.40;4.90;;;;;;;18.08;44.27;96635.31;4875402;29;20294;-84
2022/02/15 01:20:13;;;;;;;5.00;4.50;;;;;;;13.33;44.25;95923.28;5016152;23;20712;-88
2022/02/15 01:22:40;;;;;;;5.33;4.83;;;;;;;17.22;44.25;96484.53;4859521;29;20238;-88
2022/02/15 01:25:08;;;;;;;5.40;4.90;;;;;;;15.66;44.30;96226.94;4898932;29;20676;-88
2022/02/15 01:27:38;;;;;;;5.30;4.80;;;;;;;17.12;44.41;96474.94;4887664;29;20626;-89
2022/02/15 01:30:08;;;;;;;5.50;5.00;;;;;;;12.91;44.40;95859.53;4896262;29;20226;-87
2022/02/15 01:32:34;;;;;;;5.30;4.80;;;;;;;8.60;44.35;95010.13;4894917;29;20221;-89
2022/02/15 01:35:01;;;;;;;5.47;4.97;;;;;;;19.07;44.42;96801.84;4894765;29;20213;-88
2022/02/15 01:37:33;;;;;;;4.93;4.43;;;;;;;19.08;44.54;96806.09;4894628;29;20294;-79
2022/02/15 01:40:00;;;;;;;5.10;4.60;;;;;;;12.82;45.04;95805.41;4894952;29;20256;-80
2022/02/15 01:42:26;;;;;;;5.40;4.80;;;;;;;9.35;43.99;95215.06;4893903;29;20733;-81
2022/02/15 01:44:53;;;;;;;4.83;4.40;;;;;;;18.29;44.36;96664.72;4878239;29;20218;-80
2022/02/15 01:47:21;;;;;;;5.43;4.93;;;;;;;19.11;44.43;96811.28;4893491;29;20684;-80
2022/02/15 01:49:50;;;;;;;5.37;4.87;;;;;;;15.71;44.16;96257.47;4893678;29;20226;-80
2022/02/15 01:52:20;;;;;;;5.50;4.93;;;;;;;19.13;44.40;96810.47;4893275;29;20209;-81
2022/02/15 01:54:56;;;;;;;5.83;5.23;;;;;;;16.87;44.60;96464.84;4893553;29;20216;-81
2022/02/15 01:57:24;;;;;;;5.13;4.63;;;;;;;19.14;44.18;96802.03;4893287;29;20210;-81
2022/02/15 01:59:55;;;;;;;5.43;4.83;;;;;;;19.15;44.12;96801.22;4890550;29;20222;-81
2022/02/15 02:02:29;;;;;;;5.57;4.93;;;;;;;18.64;44.16;96722.53;4904984;29;20249;-79
2022/02/15 02:07:42;;;;;;;5.00;4.50;;;;;;;10.90;44.30;95389.94;4892684;29;20214;-81
2022/02/15 02:10:09;;;;;;;6.13;5.30;;;;;;;13.21;44.13;95789.19;4893144;29;20232;-81
2022/02/15 02:12:35;;;;;;;5.97;5.30;;;;;;;11.96;44.33;95608.41;4893025;29;20198;-81
2022/02/15 02:15:07;;;;;;;5.10;4.60;;;;;;;13.43;44.02;95856.34;4892881;29;20212;-79
2022/02/15 02:17:35;;;;;;;4.80;4.30;;;;;;;13.64;44.16;95882.28;4877667;29;20222;-82
2022/02/15 02:20:02;;;;;;;5.23;4.60;;;;;;;14.08;43.79;95973.00;4892965;29;20242;-78
2022/02/15 02:22:41;;;;;;;5.20;4.67;;;;;;;14.71;44.13;96045.03;4860193;29;20262;-81
2022/02/15 02:25:12;;;;;;;5.90;5.27;;;;;;;16.05;43.83;96280.53;4877816;29;20237;-80
2022/02/15 02:27:54;;;;;;;5.77;5.10;;;;;;;15.32;44.22;96150.75;4877554;29;20700;-80
2022/02/15 02:30:23;;;;;;;5.10;4.23;;;;;;;19.17;44.19;96812.31;4892911;29;20230;-79
2022/02/15 02:33:07;;;;;;;5.60;5.10;;;;;;;18.53;44.56;96706.13;4893050;29;20238;-81
2022/02/15 02:35:36;;;;;;;5.10;4.60;;;;;;;19.15;44.39;96810.53;4866062;29;20268;-80
2022/02/15 02:38:03;;;;;;;5.40;4.70;;;;;;;17.07;44.16;96495.88;4892694;29;20214;-81
2022/02/15 02:40:30;;;;;;;5.50;5.00;;;;;;;18.82;44.06;96768.88;4892183;29;20214;-81
2022/02/15 02:43:00;;;;;;;5.07;4.57;;;;;;;18.25;44.17;96668.84;4891964;29;20982;-80
2022/02/15 02:45:34;;;;;;;4.93;4.53;;;;;;;19.14;44.04;96826.63;4878093;29;20590;-78
2022/02/15 02:48:01;;;;;;;5.40;4.90;;;;;;;18.87;44.40;96777.50;4892479;29;20293;-81
2022/02/15 02:50:36;;;;;;;4.83;4.33;;;;;;;15.16;44.19;96140.09;4892019;29;20214;-80
2022/02/15 02:53:09;;;;;;;5.13;4.63;;;;;;;12.85;44.05;95886.19;4893577;29;20298;-80
2022/02/15 02:55:36;;;;;;;4.63;4.13;;;;;;;13.14;44.14;95797.34;4892475;29;20684;-80
2022/02/15 02:58:02;;;;;;;5.03;4.53;;;;;;;15.92;44.36;96286.88;4892224;29;20210;-83
2022/02/15 03:00:34;;;;;;;4.57;4.17;;;;;;;14.83;44.10;96098.53;4891193;29;20203;-81
2022/02/15 03:03:07;;;;;;;5.03;4.57;;;;;;;17.25;44.28;96515.09;4877278;29;20626;-82
2022/02/15 03:05:36;;;;;;;4.70;4.27;;;;;;;19.11;44.40;96836.75;4892894;29;20241;-79
2022/02/15 03:08:08;;;;;;;5.13;4.63;;;;;;;18.39;44.47;96718.47;4892742;29;20286;-88
2022/02/15 03:10:37;;;;;;;5.07;4.57;;;;;;;18.92;44.56;96844.69;4878363;29;20262;-88
2022/02/15 03:13:10;;;;;;;4.77;4.37;;;;;;;17.43;44.46;96563.00;4877657;29;20210;-89
2022/02/15 03:15:36;;;;;;;4.47;4.07;;;;;;;12.93;44.26;95790.69;4879218;29;20318;-88
2022/02/15 03:18:06;;;;;;;4.70;4.30;;;;;;;9.20;44.09;95239.50;4893293;29;20585;-88
2022/02/15 03:20:32;;;;;;;4.47;3.97;;;;;;;19.09;44.52;96857.06;4892460;29;20214;-88
2022/02/15 03:22:59;;;;;;;4.33;3.93;;;;;;;18.90;44.61;96848.88;4893073;29;20226;-89
2022/02/15 03:25:26;;;;;;;4.50;4.10;;;;;;;17.52;44.41;96626.81;4893559;29;20419;-88
2022/02/15 03:27:55;;;;;;;5.63;4.63;;;;;;;9.01;43.96;95176.97;4892896;29;20238;-89
2022/02/15 03:30:22;;;;;;;4.80;4.30;;;;;;;19.09;44.43;96864.72;4891922;29;20775;-89
2022/02/15 03:32:51;;;;;;;4.80;4.20;;;;;;;14.50;44.47;96080.56;4894373;29;20701;-88
2022/02/15 03:35:22;;;;;;;5.13;4.63;;;;;;;19.10;44.28;96868.13;4894412;29;20202;-89
2022/02/15 03:37:48;;;;;;;4.70;4.20;;;;;;;19.10;44.63;96871.53;4893607;29;20699;-81
2022/02/15 03:40:15;;;;;;;4.60;4.20;;;;;;;19.11;44.32;96878.38;4891332;29;20224;-82
2022/02/15 03:45:36;;;;;;;4.33;3.93;;;;;;;19.13;44.32;96879.25;4892884;29;20237;-80
2022/02/15 03:48:04;;;;;;;4.57;4.17;;;;;;;17.90;43.83;96774.56;4891402;29;20587;-80
2022/02/15 03:50:30;;;;;;;5.17;4.43;;;;;;;9.68;44.17;95261.47;4875636;29;20195;-82
2022/02/15 03:53:00;;;;;;;5.07;4.17;;;;;;;14.73;44.17;96122.66;4891409;29;20210;-80
2022/02/15 03:55:33;;;;;;;5.13;3.90;;;;;;;12.96;44.20;95874.81;4891956;29;20555;-81
2022/02/15 03:58:00;;;;;;;4.40;4.00;;;;;;;17.49;44.35;96614.00;4860898;29;20214;-80
2022/02/15 04:00:35;;;;;;;5.10;4.10;;;;;;;13.47;44.15;95997.78;4891522;29;20693;-79
2022/02/15 04:03:03;;;;;;;4.50;4.10;;;;;;;15.53;44.42;96348.91;4892268;29;20325;-81
2022/02/15 04:05:32;;;;;;;4.50;4.10;;;;;;;19.11;44.53;96897.88;4891542;29;20228;-80
2022/02/15 04:07:59;;;;;;;4.97;4.47;;;;;;;18.55;44.43;96801.16;4890938;29;20305;-80
2022/02/15 04:10:26;;;;;;;4.43;4.00;;;;;;;18.33;44.80;96768.25;4875921;29;20230;-80
2022/02/15 04:12:58;;;;;;;4.43;4.03;;;;;;;19.12;44.78;96908.09;4891710;29;20613;-81
2022/02/15 04:15:25;;;;;;;4.40;4.00;;;;;;;18.76;44.93;96860.31;4875120;29;20210;-81
2022/02/15 04:17:54;;;;;;;4.30;3.90;;;;;;;19.11;44.61;96914.03;4891398;29;20210;-81
2022/02/15 04:20:21;;;;;;;4.50;3.87;;;;;;;19.10;44.60;96913.97;4892028;29;20242;-80
2022/02/15 04:22:47;;;;;;;4.27;3.87;;;;;;;19.09;44.75;96918.19;4892300;29;20234;-80
2022/02/15 04:25:14;;;;;;;4.23;3.83;;;;;;;16.87;44.91;96561.25;4891190;29;20269;-81
2022/02/15 04:27:41;;;;;;;3.80;3.50;;;;;;;15.83;44.61;96457.97;4875233;29;20214;-81
2022/02/15 04:30:08;;;;;;;4.40;4.00;;;;;;;18.43;44.82;96804.22;4890439;29;20257;-80
2022/02/15 04:32:36;;;;;;;4.40;4.00;;;;;;;19.06;44.98;96922.31;4868433;29;20229;-81
2022/02/15 04:35:06;;;;;;;3.73;3.43;;;;;;;19.05;44.88;96926.56;4892739;29;20324;-82
2022/02/15 04:37:33;;;;;;;4.23;3.83;;;;;;;19.05;45.00;96920.59;4890429;29;20596;-80
2022/02/15 04:39:59;;;;;;;3.70;3.40;;;;;;;17.80;44.96;96716.63;4885593;29;20234;-80
2022/02/15 04:42:32;;;;;;;3.97;3.53;;;;;;;14.56;44.85;96159.13;4890736;29;20305;-83
2022/02/15 04:44:59;;;;;;;4.20;3.80;;;;;;;14.75;44.91;96204.47;4872852;29;20214;-80
2022/02/15 04:47:27;;;;;;;4.30;3.90;;;;;;;19.01;44.83;96929.00;4883429;29;20558;-81
2022/02/15 04:49:54;;;;;;;4.30;3.90;;;;;;;19.00;44.97;96937.41;4892365;29;20629;-82
2022/02/15 04:52:24;;;;;;;4.30;3.90;;;;;;;18.66;44.80;96868.50;4891148;29;20304;-79
2022/02/15 04:54:53;;;;;;;4.30;3.90;;;;;;;16.77;44.77;96560.91;4875366;29;20207;-82
2022/02/15 04:57:19;;;;;;;4.20;3.80;;;;;;;16.86;45.11;96601.81;4891408;29;20218;-80
2022/02/15 04:59:54;;;;;;;5.37;3.60;;;;;;;14.78;45.00;96282.09;4879136;29;20230;-84
2022/02/15 05:02:21;;;;;;;4.20;3.83;;;;;;;18.13;45.10;96791.41;4883533;29;20265;-78
2022/02/15 05:04:50;;;;;;;4.20;3.90;;;;;;;17.29;44.98;96646.38;4884499;29;20278;-80
2022/02/15 05:07:19;;;;;;;4.20;3.80;;;;;;;14.55;44.70;96230.72;4861195;29;20221;-81
2022/02/15 05:09:49;;;;;;;3.80;3.50;;;;;;;15.99;45.00;96470.38;4877499;29;20241;-78
2022/02/15 05:12:17;;;;;;;4.10;3.70;;;;;;;16.49;44.97;96522.78;4891723;29;20214;-81
2022/02/15 05:14:49;;;;;;;3.97;3.67;;;;;;;18.93;45.10;96943.16;4878542;29;20209;-81
2022/02/15 05:17:15;;;;;;;3.70;3.40;;;;;;;17.82;45.01;96762.41;4899596;29;20720;-81
2022/02/15 05:19:45;;;;;;;3.60;3.30;;;;;;;18.91;45.14;96948.22;4876230;29;20238;-82
2022/02/15 05:22:12;;;;;;;4.13;3.73;;;;;;;18.87;45.29;96931.13;4890179;29;20210;-81
2022/02/15 05:24:38;;;;;;;3.97;3.67;;;;;;;17.45;45.33;96701.97;4889082;29;20210;-82
2022/02/15 05:27:08;;;;;;;4.30;3.90;;;;;;;13.09;45.15;95979.53;4894606;29;20218;-81
2022/02/15 05:29:35;;;;;;;3.90;3.53;;;;;;;15.76;45.02;96411.34;4877639;29;20226;-82
2022/02/15 05:32:05;;;;;;;4.17;3.77;;;;;;;14.07;45.15;96117.78;4872662;29;20281;-81
2022/02/15 05:34:32;;;;;;;4.00;3.60;;;;;;;13.56;45.08;96090.63;4893411;29;20202;-79
2022/02/15 05:37:08;;;;;;;4.10;3.70;;;;;;;16.74;45.50;96584.50;4909596;29;20266;-80
2022/02/15 05:39:35;;;;;;;4.13;3.73;;;;;;;14.06;45.15;96129.53;4893394;29;20281;-80
2022/02/15 05:42:06;;;;;;;3.70;3.40;;;;;;;13.89;45.37;96104.50;4893879;29;20217;-81
2022/02/15 05:44:33;;;;;;;4.00;3.70;;;;;;;15.38;45.19;96406.59;4895560;29;20238;-81
2022/02/15 05:46:59;;;;;;;4.20;3.80;;;;;;;18.89;45.13;96970.19;4878442;29;20536;-82
2022/02/15 05:49:26;;;;;;;5.20;3.57;;;;;;;18.90;45.44;96974.50;4876125;29;20605;-81
2022/02/15 05:51:53;;;;;;;4.00;3.60;;;;;;;18.57;45.23;96914.03;4893719;29;20281;-82
2022/02/15 05:54:19;;;;;;;3.70;3.40;;;;;;;17.65;45.33;96751.72;4869916;29;20590;-80
2022/02/15 05:56:46;;;;;;;3.80;3.40;;;;;;;17.94;45.29;96806.88;4874261;29;20243;-80
2022/02/15 05:59:13;;;;;;;3.60;3.30;;;;;;;16.68;45.02;96594.47;4882563;29;20282;-81
2022/02/15 06:01:39;;;;;;;4.53;3.47;;;;;;;17.52;45.16;96738.56;4861967;29;20243;-79
2022/02/15 06:04:15;;;;;;;4.00;3.60;;;;;;;17.56;44.95;96763.28;4846146;29;20760;-80
2022/02/15 06:06:47;;;;;;;3.87;3.57;;;;;;;18.89;44.74;96982.09;4891787;29;20261;-81
2022/02/15 06:09:13;;;;;;;4.43;4.03;;;;;;;17.70;44.99;96782.34;4874800;29;20310;-81
2022/02/15 06:11:40;;;;;;;4.03;3.63;;;;;;;18.89;44.89;96993.13;4877785;29;20206;-82
2022/02/15 06:14:07;;;;;;;4.20;3.70;;;;;;;18.38;44.82;96901.56;4893659;29;20293;-80
2022/02/15 06:16:33;;;;;;;4.30;3.90;;;;;;;18.90;45.15;96994.88;4894009;29;20701;-80
2022/02/15 06:19:00;;;;;;;3.77;3.33;;;;;;;18.34;45.28;96913.28;4893110;29;20741;-77
2022/02/15 06:21:27;;;;;;;3.93;3.53;;;;;;;18.89;45.04;97002.44;4893713;29;20202;-78
2022/02/15 06:23:54;;;;;;;3.80;3.50;;;;;;;18.06;45.08;96865.75;4893308;29;20754;-79
2022/02/15 06:26:20;;;;;;;5.20;4.70;;;;;;;16.73;45.23;96637.72;4878156;29;20680;-79
2022/02/15 06:28:47;;;;;;;6.17;4.90;;;;;;;16.09;44.70;96523.06;4887825;29;20608;-80
2022/02/15 06:31:13;;;;;;;6.70;6.00;;;;;;;17.86;44.98;96836.28;4881044;29;20285;-80
2022/02/15 06:33:40;;;;;;;8.53;6.37;;;;;;;16.94;45.02;96676.50;4862170;29;20206;-79
2022/02/15 06:36:09;;;;;;;8.93;6.90;;;;;;;18.32;44.49;96945.44;4858231;29;20207;-81
2022/02/15 06:38:36;;;;;;;7.87;6.83;;;;;;;17.50;44.61;96779.16;4877531;29;20254;-80
2022/02/15 06:41:03;;;;;;;7.60;6.80;;;;;;;17.68;44.84;96814.50;4877861;29;20253;-81
2022/02/15 06:43:29;;;;;;;7.67;6.87;;;;;;;16.95;44.64;96691.78;4877426;29;20261;-80
2022/02/15 06:45:56;;;;;;;8.47;7.57;;;;;;;16.76;44.40;96660.66;4893513;29;20257;-80
2022/02/15 06:48:22;;;;;;;8.00;7.17;;;;;;;18.53;44.34;96978.38;4866034;29;20253;-80
2022/02/15 06:50:49;;;;;;;8.00;7.20;;;;;;;18.35;44.30;96962.50;4865074;29;20238;-78
2022/02/15 06:53:17;;;;;;;8.37;7.37;;;;;;;18.82;44.58;97023.41;4891068;29;20230;-80
2022/02/15 06:56:09;;;;;;;7.43;6.73;;;;;;;18.43;43.85;96958.53;4894424;29;20674;-79
2022/02/15 06:58:35;;;;;;;8.40;7.60;;;;;;;15.34;43.65;96426.66;4878544;29;20230;-77
2022/02/15 07:01:02;;;;;;;9.00;8.10;;;;;;;18.51;43.83;96978.34;4891034;29;20772;-79
2022/02/15 07:03:34;;;;;;;8.27;7.47;;;;;;;17.57;43.58;96821.75;4888640;29;20253;-77
2022/02/15 07:06:00;;;;;;;8.20;7.50;;;;;;;18.27;44.08;96935.94;4897187;29;20585;-77
2022/02/15 07:08:27;;;;;;;10.10;7.87;;;;;;;18.49;43.82;96979.06;4874419;29;20260;-76
2022/02/15 07:10:54;;;;;;;8.17;7.47;;;;;;;18.78;44.23;97029.25;4876381;29;20241;-77
2022/02/15 07:13:22;;;;;;;8.30;7.50;;;;;;;18.76;44.02;97030.84;4890142;29;20278;-77
2022/02/15 07:15:48;;;;;;;8.20;7.40;;;;;;;18.76;44.30;97031.75;4893766;29;20260;-78
2022/02/15 07:18:15;;;;;;;7.60;6.80;;;;;;;18.77;44.16;97045.34;4892306;29;20238;-77
2022/02/15 07:20:42;;;;;;;8.23;7.23;;;;;;;18.51;44.49;97005.44;4896431;23;20263;-84
2022/02/15 07:23:10;;;;;;;7.33;6.70;;;;;;;18.42;44.72;96994.97;4849394;29;20800;-83
2022/02/15 07:25:37;;;;;;;9.43;6.30;;;;;;;18.40;44.69;96994.91;4856304;29;20756;-84
2022/02/15 07:28:04;;;;;;;6.67;6.07;;;;;;;18.52;44.64;97017.34;4877214;29;20305;-84
2022/02/15 07:30:30;;;;;;;7.77;6.20;;;;;;;18.52;44.59;97024.97;4877927;29;20326;-84
2022/02/15 07:32:57;;;;;;;6.80;6.10;;;;;;;18.54;44.64;97025.91;4856758;29;20671;-85
2022/02/15 07:35:23;;;;;;;6.20;5.57;;;;;;;18.50;44.43;97030.00;4842171;29;20241;-86
2022/02/15 07:37:50;;;;;;;6.80;6.20;;;;;;;18.64;44.58;97050.81;4842492;29;20248;-86
2022/02/15 07:40:22;;;;;;;7.27;5.67;;;;;;;18.54;44.71;97036.06;4841961;29;20234;-86
2022/02/15 07:42:49;;;;;;;6.17;5.57;;;;;;;18.46;44.67;97024.78;4857621;29;20231;-86
2022/02/15 07:45:19;;;;;;;6.70;5.73;;;;;;;18.63;44.62;97051.66;4858663;29;20279;-87
2022/02/15 07:47:47;;;;;;;5.70;5.20;;;;;;;18.61;44.75;97048.19;4858581;29;20238;-87
2022/02/15 07:50:14;;;;;;;5.33;4.83;;;;;;;18.55;44.39;97042.88;4859149;29;20282;-86
2022/02/15 07:52:41;;;;;;;5.77;5.27;;;;;;;18.37;44.73;97012.63;4859328;29;20282;-85
2022/02/15 07:55:08;;;;;;;5.50;5.00;;;;;;;18.49;44.57;97038.47;4846956;29;20286;-85
2022/02/15 07:57:35;;;;;;;5.60;4.80;;;;;;;18.54;44.60;97038.63;4855914;29;20635;-86
2022/02/15 08:00:02;;;;;;;5.00;4.60;;;;;;;18.80;44.81;97086.16;4871866;29;20319;-85
2022/02/15 08:02:28;;;;;;;5.60;5.03;;;;;;;18.42;44.87;97023.81;4869205;29;20401;-87
2022/02/15 08:04:55;;;;;;;4.70;4.30;;;;;;;18.53;45.09;97044.53;4860626;29;20267;-86
2022/02/15 08:07:21;;;;;;;5.37;4.87;;;;;;;18.57;44.61;97061.63;4849151;29;20231;-86
2022/02/15 08:09:50;;;;;;;5.43;4.93;;;;;;;18.79;44.50;97092.06;4844012;29;20799;-86
2022/02/15 08:12:20;;;;;;;4.83;4.40;;;;;;;18.39;44.75;97036.44;4858819;29;20673;-86
2022/02/15 08:14:46;;;;;;;6.43;5.83;;;;;;;18.62;44.66;97071.13;4856961;29;20230;-85
2022/02/15 08:17:13;;;;;;;7.00;6.30;;;;;;;18.73;44.20;97091.84;4843363;29;20206;-86
2022/02/15 08:19:40;;;;;;;7.13;6.53;;;;;;;18.75;44.13;97088.56;4838979;29;20317;-86
2022/02/15 08:22:07;;;;;;;7.03;6.30;;;;;;;18.76;44.36;97094.50;4854389;29;20287;-85
2022/02/15 08:24:34;;;;;;;7.60;6.53;;;;;;;18.64;44.64;97086.47;4863689;29;20318;-86
2022/02/15 08:27:03;;;;;;;6.40;5.77;;;;;;;18.61;44.20;97087.22;4841052;29;20673;-86
2022/02/15 08:29:31;;;;;;;6.50;5.90;;;;;;;18.68;44.11;97095.94;4841628;29;20652;-86
2022/02/15 08:31:58;;;;;;;6.80;5.87;;;;;;;18.46;43.89;97056.19;4853568;29;20504;-86
2022/02/15 08:34:25;;;;;;;6.77;6.17;;;;;;;18.65;44.33;97090.75;4855531;29;20282;-86
2022/02/15 08:36:51;;;;;;;6.10;5.50;;;;;;;18.66;44.63;97095.91;4856138;29;20624;-85
2022/02/15 08:39:18;;;;;;;6.10;5.50;;;;;;;18.54;44.57;97081.88;4856073;29;20656;-86
2022/02/15 08:41:45;;;;;;;5.60;5.10;;;;;;;18.60;44.23;97094.81;4870612;29;20279;-86
2022/02/15 08:44:12;;;;;;;5.70;5.10;;;;;;;18.43;44.90;97062.84;4872916;29;20570;-86
2022/02/15 08:46:39;;;;;;;5.00;4.53;;;;;;;18.20;44.56;97026.41;4856067;29;20290;-86
2022/02/15 08:49:06;;;;;;;5.63;4.83;;;;;;;18.56;44.88;97082.81;4871178;29;20310;-86
2022/02/15 08:51:37;;;;;;;5.57;4.80;;;;;;;18.54;44.72;97082.75;4841128;29;20250;-86
2022/02/15 08:54:04;;;;;;;5.97;5.37;;;;;;;18.58;44.69;97087.13;4856390;29;20592;-86
2022/02/15 08:56:30;;;;;;;5.27;4.77;;;;;;;18.56;44.94;97086.19;4856329;29;20303;-85
2022/02/15 08:58:57;;;;;;;5.00;4.50;;;;;;;18.58;44.75;97091.34;4855907;29;20716;-86
2022/02/15 09:01:25;;;;;;;4.20;3.80;;;;;;;18.75;44.73;97121.66;4852126;29;20291;-86
2022/02/15 09:03:52;;;;;;;4.87;4.37;;;;;;;18.55;44.67;97088.69;4856420;29;20262;-85
2022/02/15 09:06:19;;;;;;;4.67;4.27;;;;;;;18.60;44.67;97100.78;4856303;29;20310;-86
2022/02/15 09:08:45;;;;;;;4.57;4.17;;;;;;;18.48;45.08;97086.75;4840620;29;20259;-86
2022/02/15 09:11:12;;;;;;;5.10;4.53;;;;;;;18.61;44.82;97101.63;4855748;29;20290;-87
2022/02/15 09:13:39;;;;;;;4.67;4.27;;;;;;;18.49;45.02;97088.47;4855910;29;20235;-86
2022/02/15 09:16:05;;;;;;;4.20;3.90;;;;;;;18.35;44.92;97075.25;4871601;29;20657;-87
2022/02/15 09:18:32;;;;;;;4.13;3.80;;;;;;;18.57;44.77;97103.22;4839120;29;20311;-86
2022/02/15 09:20:58;;;;;;;4.07;3.67;;;;;;;18.36;44.76;97058.31;4840084;29;20287;-85
2022/02/15 09:23:25;;;;;;;4.43;4.03;;;;;;;18.54;44.77;97097.16;4856554;29;20239;-86
2022/02/15 09:25:52;;;;;;;4.10;3.80;;;;;;;18.70;45.02;97129.94;4840581;29;20255;-86
2022/02/15 09:28:19;;;;;;;4.37;3.97;;;;;;;18.77;44.94;97144.63;4856046;29;20231;-87
2022/02/15 09:30:48;;;;;;;4.20;3.80;;;;;;;18.51;44.68;97100.47;4855084;29;20286;-86
2022/02/15 09:33:15;;;;;;;4.10;3.70;;;;;;;18.45;45.06;97095.16;4856313;29;20206;-86
2022/02/15 09:36:01;;;;;;;3.67;3.37;;;;;;;18.68;45.13;97134.13;4844975;29;20211;-86
2022/02/15 09:38:28;;;;;;;3.50;3.20;;;;;;;18.61;45.09;97130.50;4855572;29;20588;-86
2022/02/15 09:40:56;;;;;;;4.83;3.87;;;;;;;18.59;45.04;97121.09;4869310;29;20510;-86
2022/02/15 09:43:23;;;;;;;3.93;3.50;;;;;;;17.60;45.29;96950.56;4856721;29;20279;-86
2022/02/15 09:45:49;;;;;;;3.70;3.40;;;;;;;18.56;45.04;97123.53;4844226;29;20266;-86
2022/02/15 09:48:24;;;;;;;3.83;3.50;;;;;;;18.29;45.31;97081.84;4843833;29;20231;-86
2022/02/15 09:50:51;;;;;;;4.00;3.47;;;;;;;18.57;45.08;97127.78;4859901;29;20283;-87
2022/02/15 09:53:18;;;;;;;3.47;3.17;;;;;;;18.59;45.02;97132.09;4857868;29;20251;-86
2022/02/15 09:55:45;;;;;;;3.50;3.20;;;;;;;18.61;45.15;97135.59;4842398;29;20285;-86
2022/02/15 09:58:11;;;;;;;3.70;3.40;;;;;;;18.62;44.88;97139.00;4859178;29;20317;-87
2022/02/15 10:00:38;;;;;;;3.93;3.53;;;;;;;18.43;44.81;97109.50;4848558;29;20306;-87
2022/02/15 10:03:05;;;;;;;3.53;3.23;;;;;;;18.69;45.01;97154.53;4861769;29;20228;-88
2022/02/15 10:05:35;;;;;;;3.50;3.20;;;;;;;18.70;45.01;97158.81;4847115;29;20222;-86
2022/02/15 10:08:04;;;;;;;3.33;3.03;;;;;;;18.50;45.14;97133.50;4848549;29;20203;-86
2022/02/15 10:10:35;;;;;;;3.70;3.40;;;;;;;18.47;44.82;97118.13;4861514;29;20259;-86
2022/02/15 10:13:03;;;;;;;4.57;3.37;;;;;;;18.78;44.86;97170.13;4861332;29;20302;-86
2022/02/15 10:15:39;;;;;;;3.30;3.00;;;;;;;18.43;44.98;97119.69;4861461;29;20203;-86
2022/02/15 10:18:12;;;;;;;3.63;3.10;;;;;;;18.62;45.05;97155.13;4846694;29;20202;-86
2022/02/15 10:20:44;;;;;;;3.30;3.00;;;;;;;18.55;45.10;97145.56;4875641;29;20231;-86
2022/02/15 10:23:22;;;;;;;3.40;3.10;;;;;;;18.37;45.05;97108.38;4856994;29;20262;-87
2022/02/15 10:25:49;;;;;;;4.37;3.30;;;;;;;18.20;45.42;97074.72;4875883;29;20310;-86
2022/02/15 10:28:20;;;;;;;3.27;2.90;;;;;;;18.77;45.74;97182.81;4861178;29;20207;-86
2022/02/15 10:30:51;;;;;;;3.00;2.70;;;;;;;18.53;45.41;97136.97;4857856;29;20609;-86
2022/02/15 10:33:18;;;;;;;3.23;2.93;;;;;;;18.54;45.47;97148.03;4871476;29;20200;-86
2022/02/15 10:36:15;;;;;;;2.83;2.63;;;;;;;18.78;45.48;97189.63;4842205;29;20666;-87
2022/02/15 10:38:44;;;;;;;2.93;2.50;;;;;;;18.59;45.55;97162.66;4872534;29;20211;-86
2022/02/15 10:41:15;;;;;;;3.67;2.60;;;;;;;18.58;45.10;97148.19;4859720;29;20251;-86
2022/02/15 10:43:49;;;;;;;2.70;2.50;;;;;;;18.79;45.46;97186.25;4846173;29;20211;-87
2022/02/15 10:46:29;;;;;;;2.90;2.60;;;;;;;18.51;45.33;97137.75;4876480;29;20198;-87
2022/02/15 10:48:56;;;;;;;2.60;2.40;;;;;;;18.56;45.14;97142.19;4857188;29;20237;-86
2022/02/15 10:51:23;;;;;;;2.57;2.33;;;;;;;18.57;45.24;97150.69;4844509;29;20294;-87
2022/02/15 10:53:56;;;;;;;2.67;2.47;;;;;;;18.65;45.43;97169.66;4846707;29;20206;-86
2022/02/15 10:56:30;;;;;;;2.60;2.40;;;;;;;18.42;45.07;97127.25;4845324;29;20211;-87
2022/02/15 10:58:57;;;;;;;3.57;2.50;;;;;;;18.55;45.10;97152.31;4845565;29;20235;-86
2022/02/15 11:01:23;;;;;;;2.70;2.50;;;;;;;18.58;45.21;97152.41;4859562;29;20293;-86
2022/02/15 11:03:50;;;;;;;3.00;2.70;;;;;;;18.21;44.96;97094.28;4843687;29;20237;-86
2022/02/15 11:06:16;;;;;;;5.53;2.43;;;;;;;18.58;45.60;97158.38;4874100;29;20226;-87
2022/02/15 11:08:43;;;;;;;2.80;2.60;;;;;;;18.24;45.53;97097.78;4848021;29;20242;-86
2022/02/15 11:11:10;;;;;;;2.47;2.27;;;;;;;18.79;45.39;97184.56;4851308;29;20302;-85
2022/02/15 11:13:37;;;;;;;3.17;2.40;;;;;;;18.65;45.04;97159.47;4870949;29;20227;-85
2022/02/15 11:16:14;;;;;;;2.63;2.43;;;;;;;18.61;45.10;97158.47;4853798;29;20196;-86
2022/02/15 11:18:41;;;;;;;2.70;2.47;;;;;;;18.48;45.29;97130.88;4852038;29;20616;-85
2022/02/15 11:21:08;;;;;;;2.40;2.20;;;;;;;18.48;45.09;97130.88;4839332;29;20254;-84
2022/02/15 11:23:36;;;;;;;2.50;2.30;;;;;;;18.60;45.28;97149.13;4842364;29;20294;-85
2022/02/15 11:26:14;;;;;;;2.43;2.23;;;;;;;18.64;45.09;97158.59;4851250;29;20259;-86
2022/02/15 11:28:56;;;;;;;2.30;2.10;;;;;;;18.46;45.24;97121.44;4858863;29;20234;-86
2022/02/15 11:31:39;;;;;;;2.90;2.60;;;;;;;18.72;45.42;97167.38;4845678;29;20216;-86
2022/02/15 11:34:07;;;;;;;2.87;2.67;;;;;;;18.58;45.13;97138.03;4873538;29;20685;-85
2022/02/15 11:36:51;;;;;;;2.60;2.40;;;;;;;18.63;45.17;97153.44;4858533;29;20718;-85
2022/02/15 11:39:19;;;;;;;2.50;2.30;;;;;;;18.77;45.06;97177.72;4860136;29;20255;-86
2022/02/15 11:41:47;;;;;;;2.53;2.30;;;;;;;18.45;45.01;97118.06;4859921;29;20239;-87
2022/02/15 11:44:16;;;;;;;2.63;2.43;;;;;;;18.69;45.34;97158.75;4845941;29;20314;-87
2022/02/15 11:46:43;;;;;;;2.43;2.23;;;;;;;18.45;45.45;97109.56;4860887;29;20207;-86
2022/02/15 11:49:14;;;;;;;2.20;2.00;;;;;;;18.33;45.22;97106.56;4861220;29;20307;-86
2022/02/15 11:51:44;;;;;;;2.70;2.50;;;;;;;18.43;45.18;97122.22;4845515;29;20241;-85
2022/02/15 11:54:16;;;;;;;2.53;2.33;;;;;;;18.64;45.08;97157.72;4848344;29;20222;-84
2022/02/15 12:18:31;;;;;;;2.47;2.27;;;;;;;18.64;45.09;97173.88;5801655;23;20249;-87
2022/02/15 12:20:58;;;;;;;1.80;1.70;;;;;;;18.55;45.24;97159.94;4871708;29;20277;-88